Terminal Aerodrome Forecast
Issued by NWS Grand Forks, ND

Home | Current Version | Previous Version | Text Only | Print | Product List | Glossary Off
Versions: 1 2 3 4 5 6 7 8 9 10 11 12 13 14 15 16 17 18 19 20 21 22 23 24 25 26 27

705
FTUS43 KFGF 221422 AAA
TAFGFK
TAF AMD
KGFK 221422Z 2214/2312 28005KT P6SM SCT070
     FM221600 35007KT P6SM SCT040
     FM222000 01012KT P6SM SCT110
     FM222200 02010KT P6SM BKN090
     FM230400 01009KT P6SM -RASN OVC025
     FM231100 03009KT P6SM OVC025=

USA.gov is the U.S. government's official web portal to all federal, state and local government web resources and services.